createdAt,value
2018-12-24T00:00:39.525Z,1025.47
2018-12-24T00:01:20.363Z,1025.48
2018-12-24T00:02:01.040Z,1025.45
2018-12-24T00:02:41.827Z,1025.5
2018-12-24T00:03:22.614Z,1025.45
2018-12-24T00:04:03.313Z,1025.46
2018-12-24T00:04:44.033Z,1025.48
2018-12-24T00:05:24.757Z,1025.44
2018-12-24T00:06:05.553Z,1025.46
2018-12-24T00:06:46.323Z,1025.45
2018-12-24T00:07:27.063Z,1025.45
2018-12-24T00:08:07.906Z,1025.39
2018-12-24T00:08:48.733Z,1025.4
2018-12-24T00:09:29.546Z,1025.39
2018-12-24T00:10:10.348Z,1025.39
2018-12-24T00:10:51.031Z,1025.4
2018-12-24T00:11:31.726Z,1025.33
2018-12-24T00:12:12.472Z,1025.31
2018-12-24T00:12:53.250Z,1025.3
2018-12-24T00:13:34.074Z,1025.28
2018-12-24T00:14:14.829Z,1025.29
2018-12-24T00:14:55.627Z,1025.27
2018-12-24T00:15:36.383Z,1025.25
2018-12-24T00:16:17.155Z,1025.23
2018-12-24T00:16:57.882Z,1025.22
2018-12-24T00:17:38.609Z,1025.2
2018-12-24T00:18:19.343Z,1025.18
2018-12-24T00:19:00.153Z,1025.17
2018-12-24T00:19:40.930Z,1025.15
2018-12-24T00:20:21.747Z,1025.15
2018-12-24T00:21:02.487Z,1025.11
2018-12-24T00:21:43.222Z,1025.09
2018-12-24T00:22:23.954Z,1025.13
2018-12-24T00:23:04.675Z,1025.08
2018-12-24T00:23:45.511Z,1025.07
2018-12-24T00:24:26.240Z,1025.08
2018-12-24T00:25:07.010Z,1025.09
2018-12-24T00:25:47.807Z,1025.07
2018-12-24T00:26:28.610Z,1025.07
2018-12-24T00:27:09.393Z,1025.08
2018-12-24T00:27:50.152Z,1025.06
2018-12-24T00:28:30.869Z,1025.07
2018-12-24T00:29:11.592Z,1025.03
2018-12-24T00:29:52.410Z,1025.05
2018-12-24T00:30:33.148Z,1025.03
2018-12-24T00:31:13.939Z,1025.03
2018-12-24T00:31:54.709Z,1025.02
2018-12-24T00:32:35.442Z,1025.03
2018-12-24T00:33:16.236Z,1025.02
2018-12-24T00:33:57.010Z,1025.01
2018-12-24T00:34:37.720Z,1025.03
2018-12-24T00:35:18.437Z,1025.05
2018-12-24T00:35:59.174Z,1025.04
2018-12-24T00:36:39.976Z,1025.01
2018-12-24T00:37:20.733Z,1024.97
2018-12-24T00:38:01.531Z,1024.99
2018-12-24T00:38:42.283Z,1024.97
2018-12-24T00:39:23.064Z,1024.96
2018-12-24T00:40:03.841Z,1024.94
2018-12-24T00:40:44.605Z,1024.97
2018-12-24T00:41:25.386Z,1024.97
2018-12-24T00:42:06.238Z,1024.95
2018-12-24T00:42:47.008Z,1025.02
2018-12-24T00:43:27.720Z,1024.97
2018-12-24T00:44:08.441Z,1024.98
2018-12-24T00:44:49.167Z,1024.97
2018-12-24T00:45:29.983Z,1024.96
2018-12-24T00:46:10.843Z,1024.96
2018-12-24T00:46:51.618Z,1025
2018-12-24T00:47:32.337Z,1024.96
2018-12-24T00:48:13.023Z,1024.97
2018-12-24T00:48:53.703Z,1024.94
2018-12-24T00:49:34.434Z,1024.94
2018-12-24T00:50:15.235Z,1024.94
2018-12-24T00:50:56.130Z,1024.94
2018-12-24T00:51:36.943Z,1024.97
2018-12-24T00:52:17.730Z,1024.98
2018-12-24T00:52:58.534Z,1024.97
2018-12-24T00:53:39.250Z,1025
2018-12-24T00:54:19.981Z,1024.95
2018-12-24T00:55:00.712Z,1024.96
2018-12-24T00:55:41.473Z,1024.97
2018-12-24T00:56:22.315Z,1024.93
2018-12-24T00:57:03.093Z,1024.92
2018-12-24T00:57:43.918Z,1024.9
2018-12-24T00:58:24.672Z,1024.93
2018-12-24T00:59:05.400Z,1024.89
2018-12-24T00:59:46.253Z,1024.87
2018-12-24T01:00:27.023Z,1024.91
2018-12-24T01:01:07.779Z,1024.9
2018-12-24T01:01:48.945Z,1024.9
2018-12-24T01:02:29.219Z,1024.88
2018-12-24T01:03:10.023Z,1024.88
2018-12-24T01:03:50.812Z,1024.9
2018-12-24T01:04:31.604Z,1024.91
2018-12-24T01:05:12.324Z,1024.91
2018-12-24T01:05:53.064Z,1024.9
2018-12-24T01:06:33.788Z,1024.9
2018-12-24T01:07:14.577Z,1024.85
2018-12-24T01:07:55.342Z,1024.85
2018-12-24T01:08:36.039Z,1024.82
2018-12-24T01:09:16.811Z,1024.78
2018-12-24T01:09:57.650Z,1024.78
2018-12-24T01:10:38.479Z,1024.77
2018-12-24T01:11:19.200Z,1024.78
2018-12-24T01:11:59.964Z,1024.78
2018-12-24T01:12:40.745Z,1024.75
2018-12-24T01:13:21.533Z,1024.78
2018-12-24T01:14:02.247Z,1024.76
2018-12-24T01:14:42.962Z,1024.8
2018-12-24T01:15:23.701Z,1024.78
2018-12-24T01:16:04.497Z,1024.8
2018-12-24T01:16:45.217Z,1024.8
2018-12-24T01:17:25.966Z,1024.79
2018-12-24T01:18:06.802Z,1024.76
2018-12-24T01:18:47.601Z,1024.78
2018-12-24T01:19:28.409Z,1024.73
2018-12-24T01:20:09.135Z,1024.73
2018-12-24T01:20:49.840Z,1024.73
2018-12-24T01:21:30.560Z,1024.75
2018-12-24T01:22:11.318Z,1024.75
2018-12-24T01:22:52.148Z,1024.76
2018-12-24T01:23:32.953Z,1024.78
2018-12-24T01:24:13.667Z,1024.76
2018-12-24T01:24:54.411Z,1024.78
2018-12-24T01:25:35.188Z,1024.77
2018-12-24T01:26:15.974Z,1024.77
2018-12-24T01:26:56.685Z,1024.76
2018-12-24T01:27:37.412Z,1024.8
2018-12-24T01:28:18.136Z,1024.76
2018-12-24T01:28:58.940Z,1024.75
2018-12-24T01:29:39.715Z,1024.76
2018-12-24T01:30:20.508Z,1024.75
2018-12-24T01:31:01.224Z,1024.73
2018-12-24T01:31:41.940Z,1024.74
2018-12-24T01:32:22.656Z,1024.7
2018-12-24T01:33:03.407Z,1024.73
2018-12-24T01:33:44.174Z,1024.66
2018-12-24T01:34:24.890Z,1024.67
2018-12-24T01:35:05.640Z,1024.68
2018-12-24T01:35:46.436Z,1024.66
2018-12-24T01:36:27.260Z,1024.64
2018-12-24T01:37:08.109Z,1024.68
2018-12-24T01:37:48.835Z,1024.67
2018-12-24T01:38:29.544Z,1024.64
2018-12-24T01:39:10.207Z,1024.67
2018-12-24T01:39:51.026Z,1024.63
2018-12-24T01:40:31.772Z,1024.67
2018-12-24T01:41:12.570Z,1024.64
2018-12-24T01:41:53.322Z,1024.66
2018-12-24T01:42:34.072Z,1024.65
2018-12-24T01:43:14.903Z,1024.68
2018-12-24T01:43:55.613Z,1024.71
2018-12-24T01:44:36.325Z,1024.72
2018-12-24T01:45:17.123Z,1024.72
2018-12-24T01:45:57.867Z,1024.73
2018-12-24T01:46:38.649Z,1024.73
2018-12-24T01:47:19.410Z,1024.74
2018-12-24T01:48:00.140Z,1024.73
2018-12-24T01:48:40.942Z,1024.79
2018-12-24T01:49:21.681Z,1024.75
2018-12-24T01:50:02.519Z,1024.78
2018-12-24T01:50:43.220Z,1024.78
2018-12-24T01:51:23.961Z,1024.82
2018-12-24T01:52:04.761Z,1024.79
2018-12-24T01:52:45.447Z,1024.82
2018-12-24T01:53:26.166Z,1024.84
2018-12-24T01:54:06.878Z,1024.81
2018-12-24T01:54:47.592Z,1024.81
2018-12-24T01:55:28.438Z,1024.8
2018-12-24T01:56:09.187Z,1024.81
2018-12-24T01:56:49.965Z,1024.85
2018-12-24T01:57:30.663Z,1024.85
2018-12-24T01:58:11.407Z,1024.85
2018-12-24T01:58:52.125Z,1024.83
2018-12-24T01:59:32.943Z,1024.87
2018-12-24T02:00:13.653Z,1024.85
2018-12-24T02:00:54.370Z,1024.86
2018-12-24T02:01:35.151Z,1024.87
2018-12-24T02:02:15.939Z,1024.88
2018-12-24T02:02:56.723Z,1024.88
2018-12-24T02:03:37.442Z,1024.85
2018-12-24T02:04:18.202Z,1024.87
2018-12-24T02:04:58.963Z,1024.86
2018-12-24T02:05:39.690Z,1024.85
2018-12-24T02:06:20.400Z,1024.86
2018-12-24T02:07:01.135Z,1024.82
2018-12-24T02:07:41.893Z,1024.82
2018-12-24T02:08:22.657Z,1024.81
2018-12-24T02:09:03.377Z,1024.83
2018-12-24T02:09:44.119Z,1024.86
2018-12-24T02:10:24.855Z,1024.79
2018-12-24T02:11:05.648Z,1024.82
2018-12-24T02:11:46.433Z,1024.82
2018-12-24T02:12:27.141Z,1024.86
2018-12-24T02:13:07.876Z,1024.84
2018-12-24T02:13:48.608Z,1024.86
2018-12-24T02:14:29.347Z,1024.84
2018-12-24T02:15:10.155Z,1024.87
2018-12-24T02:15:50.942Z,1024.83
2018-12-24T02:16:31.692Z,1024.87
2018-12-24T02:17:12.417Z,1024.88
2018-12-24T02:17:53.177Z,1024.84
2018-12-24T02:18:33.938Z,1024.84
2018-12-24T02:19:14.683Z,1024.85
2018-12-24T02:19:55.403Z,1024.86
2018-12-24T02:20:36.128Z,1024.88
2018-12-24T02:21:16.917Z,1024.88
2018-12-24T02:21:57.730Z,1024.82
2018-12-24T02:22:38.437Z,1024.84
2018-12-24T02:23:19.223Z,1024.85
2018-12-24T02:24:00.052Z,1024.78
2018-12-24T02:24:40.839Z,1024.8
2018-12-24T02:25:21.557Z,1024.81
2018-12-24T02:26:02.325Z,1024.78
2018-12-24T02:26:43.073Z,1024.76
2018-12-24T02:27:23.854Z,1024.78
2018-12-24T02:28:04.527Z,1024.79
2018-12-24T02:28:45.246Z,1024.73
2018-12-24T02:29:25.967Z,1024.75
2018-12-24T02:30:06.807Z,1024.76
2018-12-24T02:30:47.623Z,1024.76
2018-12-24T02:31:28.424Z,1024.76
2018-12-24T02:32:09.099Z,1024.74
2018-12-24T02:32:49.810Z,1024.71
2018-12-24T02:33:30.521Z,1024.74
2018-12-24T02:34:11.263Z,1024.72
2018-12-24T02:34:52.026Z,1024.71
2018-12-24T02:35:32.727Z,1024.69
2018-12-24T02:36:13.497Z,1024.73
2018-12-24T02:36:54.303Z,1024.72
2018-12-24T02:37:35.082Z,1024.76
2018-12-24T02:38:15.845Z,1024.72
2018-12-24T02:38:56.608Z,1024.76
2018-12-24T02:39:37.335Z,1024.71
2018-12-24T02:40:18.110Z,1024.74
2018-12-24T02:40:58.889Z,1024.75
2018-12-24T02:41:39.657Z,1024.75
2018-12-24T02:42:20.442Z,1024.73
2018-12-24T02:43:01.146Z,1024.74
2018-12-24T02:43:41.883Z,1024.75
2018-12-24T02:44:22.672Z,1024.72
2018-12-24T02:45:03.458Z,1024.7
2018-12-24T02:45:44.172Z,1024.68
2018-12-24T02:46:24.854Z,1024.7
2018-12-24T02:47:05.596Z,1024.67
2018-12-24T02:47:46.400Z,1024.62
2018-12-24T02:48:27.141Z,1024.64
2018-12-24T02:49:07.958Z,1024.59
2018-12-24T02:49:48.666Z,1024.6
2018-12-24T02:50:29.340Z,1024.61
2018-12-24T02:51:10.084Z,1024.59
2018-12-24T02:51:50.850Z,1024.61
2018-12-24T02:52:31.566Z,1024.58
2018-12-24T02:53:12.372Z,1024.6
2018-12-24T02:53:53.129Z,1024.59
2018-12-24T02:54:33.926Z,1024.58
2018-12-24T02:55:14.720Z,1024.58
2018-12-24T02:55:55.440Z,1024.54
2018-12-24T02:56:36.176Z,1024.54
2018-12-24T02:57:16.965Z,1024.55
2018-12-24T02:57:57.724Z,1024.56
2018-12-24T02:58:38.444Z,1024.57
2018-12-24T02:59:19.152Z,1024.54
2018-12-24T02:59:59.891Z,1024.53
2018-12-24T03:00:40.717Z,1024.5
2018-12-24T03:01:21.418Z,1024.52
2018-12-24T03:02:02.216Z,1024.52
2018-12-24T03:02:42.983Z,1024.48
2018-12-24T03:03:23.749Z,1024.47
2018-12-24T03:04:04.555Z,1024.47
2018-12-24T03:04:45.265Z,1024.46
2018-12-24T03:05:25.954Z,1024.44
2018-12-24T03:06:06.689Z,1024.45
2018-12-24T03:06:47.451Z,1024.45
2018-12-24T03:07:28.298Z,1024.44
2018-12-24T03:08:09.115Z,1024.41
2018-12-24T03:08:49.840Z,1024.42
2018-12-24T03:09:30.565Z,1024.43
2018-12-24T03:10:11.315Z,1024.42
2018-12-24T03:10:52.102Z,1024.41
2018-12-24T03:11:32.806Z,1024.44
2018-12-24T03:12:13.514Z,1024.44
2018-12-24T03:13:02.420Z,1024.44
2018-12-24T03:13:35.084Z,1024.47
2018-12-24T03:14:15.954Z,1024.49
2018-12-24T03:14:56.724Z,1024.53
2018-12-24T03:15:37.443Z,1024.55
2018-12-24T03:16:18.151Z,1024.55
2018-12-24T03:16:58.892Z,1024.56
2018-12-24T03:17:39.724Z,1024.57
2018-12-24T03:18:20.521Z,1024.55
2018-12-24T03:19:01.216Z,1024.53
2018-12-24T03:19:42.005Z,1024.54
2018-12-24T03:20:22.842Z,1024.53
2018-12-24T03:21:03.656Z,1024.47
2018-12-24T03:21:44.377Z,1024.46
2018-12-24T03:22:25.096Z,1024.46
2018-12-24T03:23:05.790Z,1024.48
2018-12-24T03:23:46.641Z,1024.47
2018-12-24T03:24:27.422Z,1024.49
2018-12-24T03:25:08.224Z,1024.48
2018-12-24T03:25:48.987Z,1024.49
2018-12-24T03:26:29.721Z,1024.48
2018-12-24T03:27:10.515Z,1024.48
2018-12-24T03:27:51.282Z,1024.45
2018-12-24T03:28:32.019Z,1024.41
2018-12-24T03:29:12.715Z,1024.41
2018-12-24T03:29:53.463Z,1024.4
2018-12-24T03:30:34.269Z,1024.42
2018-12-24T03:31:15.023Z,1024.41
2018-12-24T03:31:55.786Z,1024.38
2018-12-24T03:32:36.559Z,1024.42
2018-12-24T03:33:17.345Z,1024.44
2018-12-24T03:33:58.187Z,1024.46
2018-12-24T03:34:38.963Z,1024.44
2018-12-24T03:35:19.678Z,1024.45
2018-12-24T03:36:00.481Z,1024.41
2018-12-24T03:36:41.195Z,1024.41
2018-12-24T03:37:21.938Z,1024.41
2018-12-24T03:38:02.661Z,1024.38
2018-12-24T03:38:43.373Z,1024.38
2018-12-24T03:39:24.245Z,1024.39
2018-12-24T03:40:05.090Z,1024.38
2018-12-24T03:40:45.834Z,1024.36
2018-12-24T03:41:26.550Z,1024.39
2018-12-24T03:42:07.261Z,1024.3
2018-12-24T03:42:47.990Z,1024.27
2018-12-24T03:43:28.803Z,1024.29
2018-12-24T03:44:09.585Z,1024.24
2018-12-24T03:44:50.297Z,1024.26
2018-12-24T03:45:31.090Z,1024.21
2018-12-24T03:46:11.827Z,1024.19
2018-12-24T03:46:52.711Z,1024.18
2018-12-24T03:47:33.456Z,1024.16
2018-12-24T03:48:14.157Z,1024.22
2018-12-24T03:48:54.873Z,1024.21
2018-12-24T03:49:35.601Z,1024.21
2018-12-24T03:50:16.436Z,1024.18
2018-12-24T03:50:57.259Z,1024.21
2018-12-24T03:51:38.007Z,1024.25
2018-12-24T03:52:18.758Z,1024.23
2018-12-24T03:52:59.534Z,1024.25
2018-12-24T03:53:40.363Z,1024.29
2018-12-24T03:54:21.123Z,1024.29
2018-12-24T03:55:01.840Z,1024.32
2018-12-24T03:55:42.578Z,1024.3
2018-12-24T03:56:23.398Z,1024.31
2018-12-24T03:57:04.181Z,1024.31
2018-12-24T03:57:44.946Z,1024.34
2018-12-24T03:58:25.723Z,1024.32
2018-12-24T03:59:06.399Z,1024.32
2018-12-24T03:59:47.095Z,1024.32
2018-12-24T04:00:27.788Z,1024.34
2018-12-24T04:01:08.634Z,1024.31
2018-12-24T04:01:49.360Z,1024.32
2018-12-24T04:02:30.065Z,1024.33
2018-12-24T04:03:10.877Z,1024.29
2018-12-24T04:03:51.667Z,1024.33
2018-12-24T04:04:32.429Z,1024.36
2018-12-24T04:05:13.135Z,1024.34
2018-12-24T04:05:53.871Z,1024.34
2018-12-24T04:06:34.696Z,1024.33
2018-12-24T04:07:15.433Z,1024.27
2018-12-24T04:07:56.185Z,1024.31
2018-12-24T04:08:36.893Z,1024.31
2018-12-24T04:09:17.612Z,1024.32
2018-12-24T04:09:58.369Z,1024.24
2018-12-24T04:10:39.088Z,1024.26
2018-12-24T04:11:19.851Z,1024.24
2018-12-24T04:12:00.651Z,1024.21
2018-12-24T04:12:41.476Z,1024.19
2018-12-24T04:13:22.958Z,1024.16
2018-12-24T04:14:02.955Z,1024.14
2018-12-24T04:14:43.733Z,1024.13
2018-12-24T04:15:24.444Z,1024.12
2018-12-24T04:16:05.220Z,1024.1
2018-12-24T04:16:45.997Z,1024.09
2018-12-24T04:17:26.772Z,1024.08
2018-12-24T04:18:07.512Z,1024.06
2018-12-24T04:18:48.228Z,1024.05
2018-12-24T04:19:29.040Z,1024.04
2018-12-24T04:20:09.800Z,1024.03
2018-12-24T04:20:50.551Z,1024.08
2018-12-24T04:21:31.294Z,1024.08
2018-12-24T04:22:12.004Z,1024.04
2018-12-24T04:22:52.860Z,1024.06
2018-12-24T04:23:33.622Z,1024.05
2018-12-24T04:24:14.321Z,1024.08
2018-12-24T04:24:55.113Z,1024.05
2018-12-24T04:25:35.870Z,1024.07
2018-12-24T04:26:16.680Z,1024.07
2018-12-24T04:26:57.394Z,1024.04
2018-12-24T04:27:41.817Z,1024.06
2018-12-24T04:28:19.002Z,1024.06
2018-12-24T04:28:59.713Z,1024.04
2018-12-24T04:29:40.396Z,1024.05
2018-12-24T04:30:21.105Z,1024.06
2018-12-24T04:31:01.871Z,1024.07
2018-12-24T04:31:42.708Z,1024.03
2018-12-24T04:32:23.573Z,1024.04
2018-12-24T04:33:04.347Z,1024.06
2018-12-24T04:33:45.060Z,1024.06
2018-12-24T04:34:25.781Z,1024.06
2018-12-24T04:35:06.464Z,1024.08
2018-12-24T04:35:47.264Z,1024.08
2018-12-24T04:36:27.984Z,1024.07
2018-12-24T04:37:08.712Z,1024.05
2018-12-24T04:37:49.482Z,1024.08
2018-12-24T04:38:30.253Z,1024.03
2018-12-24T04:39:11.030Z,1024.03
2018-12-24T04:39:51.764Z,1024.02
2018-12-24T04:40:32.469Z,1023.99
2018-12-24T04:41:13.275Z,1023.98
2018-12-24T04:41:54.000Z,1023.99
2018-12-24T04:42:34.707Z,1023.95
2018-12-24T04:43:15.390Z,1023.93
2018-12-24T04:43:58.914Z,1023.97
2018-12-24T04:44:36.935Z,1023.95
2018-12-24T04:45:17.650Z,1023.93
2018-12-24T04:45:58.413Z,1023.91
2018-12-24T04:46:39.215Z,1023.91
2018-12-24T04:47:19.991Z,1023.9
2018-12-24T04:48:00.847Z,1023.87
2018-12-24T04:48:41.540Z,1023.89
2018-12-24T04:49:22.294Z,1023.88
2018-12-24T04:50:03.067Z,1023.88
2018-12-24T04:50:43.770Z,1023.83
2018-12-24T04:51:24.602Z,1023.84
2018-12-24T04:52:05.469Z,1023.8
2018-12-24T04:52:46.260Z,1023.8
2018-12-24T04:53:26.956Z,1023.84
2018-12-24T04:54:07.738Z,1023.81
2018-12-24T04:54:48.523Z,1023.82
2018-12-24T04:55:29.219Z,1023.84
2018-12-24T04:56:09.944Z,1023.84
2018-12-24T04:56:50.667Z,1023.86
2018-12-24T04:57:31.508Z,1023.88
2018-12-24T04:58:12.347Z,1023.88
2018-12-24T04:58:53.065Z,1023.85
2018-12-24T04:59:33.793Z,1023.87
2018-12-24T05:00:14.497Z,1023.89
2018-12-24T05:00:55.241Z,1023.87
2018-12-24T05:01:35.946Z,1023.88
2018-12-24T05:02:16.805Z,1023.87
2018-12-24T05:02:57.538Z,1023.83
2018-12-24T05:03:38.244Z,1023.87
2018-12-24T05:04:19.041Z,1023.88
2018-12-24T05:04:59.845Z,1023.85
2018-12-24T05:05:40.630Z,1023.86
2018-12-24T05:06:21.359Z,1023.81
2018-12-24T05:07:02.078Z,1023.88
2018-12-24T05:07:42.853Z,1023.88
2018-12-24T05:08:23.676Z,1023.9
2018-12-24T05:09:04.477Z,1023.89
2018-12-24T05:09:45.297Z,1023.85
2018-12-24T05:10:26.094Z,1023.87
2018-12-24T05:11:06.815Z,1023.88
2018-12-24T05:11:47.643Z,1023.86
2018-12-24T05:12:28.419Z,1023.87
2018-12-24T05:13:09.150Z,1023.85
2018-12-24T05:13:49.867Z,1023.84
2018-12-24T05:14:30.612Z,1023.79
2018-12-24T05:15:11.398Z,1023.82
2018-12-24T05:15:52.131Z,1023.82
2018-12-24T05:16:32.828Z,1023.84
2018-12-24T05:17:13.689Z,1023.86
2018-12-24T05:17:54.429Z,1023.81
2018-12-24T05:18:35.206Z,1023.83
2018-12-24T05:19:15.900Z,1023.84
2018-12-24T05:19:56.704Z,1023.81
2018-12-24T05:20:37.547Z,1023.79
2018-12-24T05:21:18.280Z,1023.8
2018-12-24T05:21:59.041Z,1023.78
2018-12-24T05:22:39.755Z,1023.75
2018-12-24T05:23:20.500Z,1023.76
2018-12-24T05:24:01.286Z,1023.78
2018-12-24T05:24:42.074Z,1023.79
2018-12-24T05:25:22.810Z,1023.79
2018-12-24T05:26:03.492Z,1023.79
2018-12-24T05:26:44.177Z,1023.8
2018-12-24T05:27:24.921Z,1023.83
2018-12-24T05:28:05.720Z,1023.8
2018-12-24T05:28:46.473Z,1023.83
2018-12-24T05:29:27.200Z,1023.84
2018-12-24T05:30:08.034Z,1023.82
2018-12-24T05:30:48.805Z,1023.84
2018-12-24T05:31:29.665Z,1023.86
2018-12-24T05:32:10.393Z,1023.87
2018-12-24T05:32:51.147Z,1023.86
2018-12-24T05:33:31.894Z,1023.85
2018-12-24T05:34:12.642Z,1023.9
2018-12-24T05:34:53.378Z,1023.87
2018-12-24T05:35:34.171Z,1023.89
2018-12-24T05:36:14.890Z,1023.88
2018-12-24T05:36:55.576Z,1023.91
2018-12-24T05:37:36.379Z,1023.86
2018-12-24T05:38:17.125Z,1023.87
2018-12-24T05:38:57.800Z,1023.87
2018-12-24T05:39:38.570Z,1023.86
2018-12-24T05:40:19.301Z,1023.88
2018-12-24T05:41:00.126Z,1023.9
2018-12-24T05:41:40.990Z,1023.89
2018-12-24T05:42:21.770Z,1023.9
2018-12-24T05:43:02.521Z,1023.91
2018-12-24T05:43:49.333Z,1023.89
2018-12-24T05:44:24.014Z,1023.89
2018-12-24T05:45:04.784Z,1023.88
2018-12-24T05:45:45.522Z,1023.89
2018-12-24T05:46:26.271Z,1023.89
2018-12-24T05:47:07.015Z,1023.92
2018-12-24T05:47:47.780Z,1023.91
2018-12-24T05:48:28.606Z,1023.91
2018-12-24T05:49:09.385Z,1023.89
2018-12-24T05:49:50.114Z,1023.9
2018-12-24T05:50:30.922Z,1023.9
2018-12-24T05:51:11.634Z,1023.89
2018-12-24T05:51:52.359Z,1023.88
2018-12-24T05:52:33.123Z,1023.88
2018-12-24T05:53:13.833Z,1023.88
2018-12-24T05:53:54.630Z,1023.93
2018-12-24T05:54:35.391Z,1023.92
2018-12-24T05:55:16.153Z,1023.91
2018-12-24T05:55:56.897Z,1023.93
2018-12-24T05:56:37.619Z,1023.9
2018-12-24T05:57:18.410Z,1023.92
2018-12-24T05:57:59.174Z,1023.92
2018-12-24T05:58:39.868Z,1023.88
2018-12-24T05:59:20.611Z,1023.89
2018-12-24T06:00:01.347Z,1023.84
2018-12-24T06:00:42.190Z,1023.86
2018-12-24T06:01:23.017Z,1023.84
2018-12-24T06:02:03.780Z,1023.81
2018-12-24T06:02:44.514Z,1023.79
2018-12-24T06:03:25.243Z,1023.82
2018-12-24T06:04:06.022Z,1023.8
2018-12-24T06:04:46.794Z,1023.79
2018-12-24T06:05:27.526Z,1023.79
2018-12-24T06:06:08.296Z,1023.81
2018-12-24T06:06:49.055Z,1023.79
2018-12-24T06:07:29.814Z,1023.78
2018-12-24T06:08:10.587Z,1023.79
2018-12-24T06:08:51.312Z,1023.84
2018-12-24T06:09:32.006Z,1023.85
2018-12-24T06:10:12.715Z,1023.81
2018-12-24T06:10:53.471Z,1023.86
2018-12-24T06:11:34.252Z,1023.87
2018-12-24T06:12:15.036Z,1023.85
2018-12-24T06:12:55.754Z,1023.86
2018-12-24T06:13:36.530Z,1023.92
2018-12-24T06:14:17.341Z,1023.88
2018-12-24T06:14:58.152Z,1023.9
2018-12-24T06:15:38.928Z,1023.9
2018-12-24T06:16:19.637Z,1023.89
2018-12-24T06:17:00.350Z,1023.92
2018-12-24T06:17:41.140Z,1023.91
2018-12-24T06:18:21.899Z,1023.91
2018-12-24T06:19:02.670Z,1023.91
2018-12-24T06:19:43.437Z,1023.91
2018-12-24T06:20:24.147Z,1023.95
2018-12-24T06:21:04.920Z,1023.94
2018-12-24T06:21:45.703Z,1023.93
2018-12-24T06:22:26.464Z,1023.91
2018-12-24T06:23:07.175Z,1023.93
2018-12-24T06:23:47.892Z,1023.95
2018-12-24T06:24:28.709Z,1023.96
2018-12-24T06:25:09.430Z,1023.89
2018-12-24T06:25:50.165Z,1023.91
2018-12-24T06:26:30.972Z,1023.92
2018-12-24T06:27:11.718Z,1023.89
2018-12-24T06:27:52.505Z,1023.93
2018-12-24T06:28:33.235Z,1023.92
2018-12-24T06:29:13.976Z,1023.87
2018-12-24T06:29:54.788Z,1023.91
2018-12-24T06:30:35.543Z,1023.89
2018-12-24T06:31:16.262Z,1023.91
2018-12-24T06:31:56.943Z,1023.92
2018-12-24T06:32:37.666Z,1023.9
2018-12-24T06:33:18.441Z,1023.87
2018-12-24T06:33:59.245Z,1023.89
2018-12-24T06:34:40.058Z,1023.88
2018-12-24T06:35:20.764Z,1023.88
2018-12-24T06:36:01.533Z,1023.9
2018-12-24T06:36:42.247Z,1023.89
2018-12-24T06:37:23.012Z,1023.89
2018-12-24T06:38:03.812Z,1023.88
2018-12-24T06:38:44.502Z,1023.92
2018-12-24T06:39:25.287Z,1023.91
2018-12-24T06:40:06.026Z,1023.94
2018-12-24T06:40:46.826Z,1023.93
2018-12-24T06:41:27.574Z,1023.92
2018-12-24T06:42:08.285Z,1023.97
2018-12-24T06:42:49.166Z,1023.96
2018-12-24T06:43:29.969Z,1023.97
2018-12-24T06:44:10.687Z,1024.03
2018-12-24T06:44:51.373Z,1023.98
2018-12-24T06:45:32.080Z,1023.98
2018-12-24T06:46:12.959Z,1024.01
2018-12-24T06:46:53.753Z,1024
2018-12-24T06:47:34.415Z,1024.02
2018-12-24T06:48:15.186Z,1024.02
2018-12-24T06:48:55.999Z,1024.05
2018-12-24T06:49:36.809Z,1024.03
2018-12-24T06:50:17.566Z,1024.02
2018-12-24T06:50:58.267Z,1024.02
2018-12-24T06:51:38.976Z,1024.02
2018-12-24T06:52:19.694Z,1024.04
2018-12-24T06:53:00.457Z,1024.06
2018-12-24T06:53:41.252Z,1024.03
2018-12-24T06:54:22.100Z,1024.06
2018-12-24T06:55:02.840Z,1024.05
2018-12-24T06:55:43.575Z,1024.05
2018-12-24T06:56:24.335Z,1024.1
2018-12-24T06:57:05.042Z,1024.1
2018-12-24T06:57:45.727Z,1024.08
2018-12-24T06:58:26.432Z,1024.11
2018-12-24T06:59:07.191Z,1024.1
2018-12-24T06:59:47.934Z,1024.14
2018-12-24T07:00:28.738Z,1024.08
2018-12-24T07:01:09.408Z,1024.11
2018-12-24T07:01:50.180Z,1024.08
2018-12-24T07:02:31.037Z,1024.08
2018-12-24T07:03:11.819Z,1024.09
2018-12-24T07:03:52.530Z,1024.09
2018-12-24T07:04:33.311Z,1024.1
2018-12-24T07:05:14.053Z,1024.08
2018-12-24T07:05:54.752Z,1024.1
2018-12-24T07:06:35.481Z,1024.13
2018-12-24T07:07:16.238Z,1024.11
2018-12-24T07:07:57.009Z,1024.08
2018-12-24T07:08:37.744Z,1024.06
2018-12-24T07:09:18.532Z,1024.05
2018-12-24T07:09:59.257Z,1024.06
2018-12-24T07:10:39.994Z,1024.04
2018-12-24T07:11:20.748Z,1024.07
2018-12-24T07:12:01.508Z,1024.07
2018-12-24T07:12:42.344Z,1024.04
2018-12-24T07:13:23.103Z,1024.07
2018-12-24T07:14:03.798Z,1024.08
2018-12-24T07:14:44.601Z,1024.06
2018-12-24T07:15:25.378Z,1024.09
2018-12-24T07:16:06.186Z,1024.1
2018-12-24T07:16:46.894Z,1024.11
2018-12-24T07:17:27.603Z,1024.13
2018-12-24T07:18:08.378Z,1024.13
2018-12-24T07:18:49.189Z,1024.14
2018-12-24T07:19:29.971Z,1024.13
2018-12-24T07:20:10.760Z,1024.15
2018-12-24T07:20:51.512Z,1024.17
2018-12-24T07:21:32.247Z,1024.17
2018-12-24T07:22:13.081Z,1024.2
2018-12-24T07:22:53.826Z,1024.19
2018-12-24T07:23:34.531Z,1024.16
2018-12-24T07:24:15.237Z,1024.18
2018-12-24T07:24:55.951Z,1024.18
2018-12-24T07:25:36.807Z,1024.19
2018-12-24T07:26:17.575Z,1024.19
2018-12-24T07:26:58.358Z,1024.2
2018-12-24T07:27:39.064Z,1024.2
2018-12-24T07:28:19.763Z,1024.23
2018-12-24T07:29:00.491Z,1024.21
2018-12-24T07:29:41.299Z,1024.22
2018-12-24T07:30:22.029Z,1024.26
2018-12-24T07:31:02.728Z,1024.26
2018-12-24T07:31:43.519Z,1024.3
2018-12-24T07:32:24.371Z,1024.28
2018-12-24T07:33:05.162Z,1024.26
2018-12-24T07:33:45.914Z,1024.29
2018-12-24T07:34:32.272Z,1024.29
2018-12-24T07:35:07.466Z,1024.3
2018-12-24T07:35:48.203Z,1024.3
2018-12-24T07:36:28.898Z,1024.3
2018-12-24T07:37:09.587Z,1024.29
2018-12-24T07:37:50.354Z,1024.26
2018-12-24T07:38:31.173Z,1024.31
2018-12-24T07:39:11.888Z,1024.29
2018-12-24T07:39:52.609Z,1024.29
2018-12-24T07:42:09.000Z,1024.29
2018-12-24T07:42:49.769Z,1024.29
2018-12-24T07:43:30.476Z,1024.34
2018-12-24T07:44:11.339Z,1024.33
2018-12-24T07:44:52.135Z,1024.35
2018-12-24T07:45:32.814Z,1024.35
2018-12-24T07:46:13.552Z,1024.39
2018-12-24T07:46:54.261Z,1024.39
2018-12-24T07:47:35.040Z,1024.4
2018-12-24T07:48:15.850Z,1024.43
2018-12-24T07:48:56.744Z,1024.47
2018-12-24T07:49:37.409Z,1024.45
2018-12-24T07:50:18.138Z,1024.44
2018-12-24T07:50:58.861Z,1024.42
2018-12-24T07:51:39.624Z,1024.45
2018-12-24T07:52:20.460Z,1024.46
2018-12-24T07:53:01.182Z,1024.47
2018-12-24T07:53:41.945Z,1024.45
2018-12-24T07:54:22.784Z,1024.46
2018-12-24T07:55:03.532Z,1024.46
2018-12-24T07:55:44.363Z,1024.46
2018-12-24T07:56:25.073Z,1024.48
2018-12-24T07:57:05.831Z,1024.48
2018-12-24T07:57:46.620Z,1024.49
2018-12-24T07:58:27.345Z,1024.54
2018-12-24T07:59:08.106Z,1024.52
2018-12-24T07:59:48.877Z,1024.53
2018-12-24T08:00:29.664Z,1024.55
2018-12-24T08:01:10.540Z,1024.52
2018-12-24T08:01:51.267Z,1024.58
2018-12-24T08:02:32.034Z,1024.59
2018-12-24T08:03:12.838Z,1024.59
2018-12-24T08:03:53.609Z,1024.56
2018-12-24T08:04:34.356Z,1024.6
2018-12-24T08:05:15.079Z,1024.59
2018-12-24T08:05:55.807Z,1024.57
2018-12-24T08:06:36.579Z,1024.55
2018-12-24T08:07:17.376Z,1024.54
2018-12-24T08:07:58.154Z,1024.55
2018-12-24T08:08:38.940Z,1024.52
2018-12-24T08:09:19.672Z,1024.53
2018-12-24T08:10:00.422Z,1024.54
2018-12-24T08:10:41.244Z,1024.54
2018-12-24T08:11:21.938Z,1024.53
2018-12-24T08:12:02.645Z,1024.55
2018-12-24T08:12:43.354Z,1024.59
2018-12-24T08:13:24.143Z,1024.59
2018-12-24T08:14:05.004Z,1024.62
2018-12-24T08:14:45.751Z,1024.59
2018-12-24T08:15:26.524Z,1024.62
2018-12-24T08:16:07.306Z,1024.63